首页
METAR-TAF:

METAR-TAF

机场 :

Farmville Regional Airport

Farmville, 弗吉尼亚州, 美国

纬度: 37-21N, 经度: 078-26W, 海拔: 125米

当前天气观测

该预报发布于15分钟前的18:35 UTC
风速5节,风向西南
温度 11°C
湿度 82%
气压 1019 hPa
能見度: 16.1公里
多云层高于2100英尺
多云层高于2600英尺
阴天层高于10000英尺
小雨

METAR: KFVX 181835Z AUTO 22005KT 10SM -RA BKN021 BKN026 OVC100 11/08 A3010 RMK AO2 T01120075

时间: 13:50 (18:50 UTC)


TAF: 丢失

超过4000个机场的气象观测和天气预报(METAR&TAF报告)。

可查询的气象台以黄色和红色小点在地图上表示。

将鼠标移到小点上方,可查看气象台名称。

然后点击查看天气观测和预报。

如需切换地图:点击带黑十字的绿色按钮放大地图;点击带横线的绿色按钮缩小地图;或者点击绿色箭头查看邻近地区的地图。


METAR-TAF: